Weather reports worldwide

Advertisment
Quintanar De La Orden, Spain (8275): temperature & dewpoint: 16.02.2019 22:00:00 - 22.02.2019 22:00:00 (CET)Quintanar De La Orden, Spain (8275): wind speed & gusts: 16.02.2019 22:00:00 - 22.02.2019 22:00:00 (CET)Quintanar De La Orden, Spain (8275): wind direction: 16.02.2019 22:00:00 - 22.02.2019 22:00:00 (CET)Quintanar De La Orden, Spain (8275): precipitation: 16.02.2019 22:00:00 - 22.02.2019 22:00:00 (CET)
Date & Time tt [°C] td [°C] ff [km/h] ff [kn] fx [km/h] fx [kn] dd rr [mm]
22.02.2019 22:00:00 - - - - - - - -
22.02.2019 21:00:00 9,9 -7,2 5 3 9 5 NE 0,0
22.02.2019 20:00:00 12,9 -6,6 3 1 6 3 N 0,0
22.02.2019 19:00:00 15,6 -6,0 3 2 12 7 N -
22.02.2019 18:00:00 17,9 -4,1 4 2 13 7 NNW 0,0
22.02.2019 17:00:00 19,1 -3,1 3 2 13 7 NNW 0,0
22.02.2019 16:00:00 19,5 -2,7 4 2 13 7 W 0,0
22.02.2019 15:00:00 19,4 -2,2 1 1 14 8 SW 0,0
22.02.2019 14:00:00 18,6 -0,7 3 2 15 8 N 0,0
22.02.2019 13:00:00 17,3 0,9 1 1 - - SSW -
22.02.2019 12:00:00 14,1 1,4 3 2 8 4 WNW 0,0
22.02.2019 11:00:00 11,6 1,3 2 1 4 2 ESE 0,0
22.02.2019 10:00:00 5,4 -0,4 3 1 4 2 NNW 0,0
22.02.2019 09:00:00 1,7 -2,4 0 0 5 3 NNW 0,0
22.02.2019 08:00:00 0,7 -3,4 3 2 7 4 NNW 0,0
22.02.2019 07:00:00 1,6 -3,1 5 3 10 5 NE -
22.02.2019 06:00:00 2,0 -3,7 7 4 10 5 NE 0,0
22.02.2019 05:00:00 2,4 -4,1 5 3 8 5 NE 0,0
22.02.2019 04:00:00 2,5 -4,4 5 3 6 3 NE 0,0
22.02.2019 03:00:00 3,4 -5,0 3 2 5 3 NE 0,0
22.02.2019 02:00:00 4,0 -6,0 4 2 9 5 NE 0,0
22.02.2019 01:00:00 5,4 -6,7 5 3 11 6 NE -
22.02.2019 00:00:00 8,4 -5,0 4 2 13 7 SE 0,0
21.02.2019 23:00:00 8,8 -5,0 4 2 12 7 SE 0,0
21.02.2019 22:00:00 9,5 -4,4 1 1 12 7 SE 0,0
21.02.2019 21:00:00 10,6 -4,6 4 2 13 7 SE 0,0
21.02.2019 20:00:00 11,9 -5,1 5 3 12 7 SE 0,0
21.02.2019 19:00:00 14,3 -4,9 3 2 16 9 SE -
21.02.2019 18:00:00 16,4 -5,9 8 4 21 11 SE 0,0
21.02.2019 17:00:00 17,4 -6,4 10 5 25 14 SSE 0,0
21.02.2019 16:00:00 17,9 -4,7 10 6 25 14 SSE 0,0
21.02.2019 15:00:00 17,6 -3,2 11 6 22 12 SSE 0,0
21.02.2019 14:00:00 17,3 -1,3 9 5 21 11 SSE 0,0
21.02.2019 13:00:00 15,2 -0,5 9 5 22 12 SSE -
21.02.2019 12:00:00 12,5 2,1 9 5 21 11 SSE 0,0
21.02.2019 11:00:00 9,7 3,0 9 5 21 11 SSE 0,0
21.02.2019 10:00:00 4,8 1,8 2 1 6 3 SW 0,0
21.02.2019 09:00:00 2,8 0,7 0 0 3 2 ENE 0,0
21.02.2019 08:00:00 2,0 -0,2 0 0 3 2 N 0,0
21.02.2019 07:00:00 2,2 -0,5 0 0 3 2 N -
21.02.2019 06:00:00 3,1 -0,3 1 0 4 2 ENE 0,0
21.02.2019 05:00:00 4,4 0,2 0 0 6 3 ENE 0,0
21.02.2019 04:00:00 5,4 0,6 2 1 12 7 E 0,0
21.02.2019 03:00:00 5,4 -0,4 2 1 12 6 ESE 0,0
21.02.2019 02:00:00 5,4 -2,2 0 0 12 7 NW 0,0
21.02.2019 01:00:00 6,9 -1,5 6 4 13 7 SSE -
21.02.2019 00:00:00 6,2 -2,6 0 0 5 3 N 0,0
20.02.2019 23:00:00 6,2 -2,6 4 2 5 3 NE 0,0
20.02.2019 22:00:00 7,9 -2,4 3 2 9 5 NE 0,0
20.02.2019 21:00:00 9,8 -1,8 1 0 6 3 NNE 0,0
20.02.2019 20:00:00 11,4 -1,3 2 1 5 3 NNE 0,0
20.02.2019 19:00:00 13,6 -1,5 1 1 4 2 NNE -
20.02.2019 18:00:00 15,2 -1,3 1 1 8 4 E 0,0
20.02.2019 17:00:00 16,0 -0,6 1 1 8 4 NW 0,0
20.02.2019 16:00:00 16,6 0,3 2 1 9 5 SW 0,0
20.02.2019 15:00:00 15,6 0,2 3 2 11 6 NE 0,0
20.02.2019 14:00:00 14,9 1,5 5 3 13 7 S 0,0
20.02.2019 13:00:00 13,0 2,6 3 2 14 7 S -
20.02.2019 12:00:00 10,3 3,1 6 4 16 9 SSE 0,0
20.02.2019 11:00:00 7,7 3,9 5 3 13 7 SSE 0,0
20.02.2019 10:00:00 5,3 3,5 6 3 13 7 SSE 0,0
20.02.2019 09:00:00 4,4 3,5 2 1 13 7 ESE 0,0
20.02.2019 08:00:00 4,1 2,9 2 1 9 5 SSE 0,0
20.02.2019 07:00:00 4,2 2,7 3 2 15 8 SE -
20.02.2019 06:00:00 4,9 2,9 7 4 17 9 SE 0,0
20.02.2019 05:00:00 4,9 2,9 6 3 21 11 SE 0,0
20.02.2019 04:00:00 5,6 3,3 9 5 23 12 SSE 0,0
20.02.2019 03:00:00 5,9 2,7 10 5 25 14 SE 0,0
20.02.2019 02:00:00 6,3 2,2 10 5 20 11 SSE 0,0
20.02.2019 01:00:00 6,4 -0,5 4 2 11 6 SE -
20.02.2019 00:00:00 7,3 -1,9 3 1 9 5 SSW 0,0
19.02.2019 23:00:00 8,5 -1,8 4 2 10 5 SSE 0,0
19.02.2019 22:00:00 8,4 -1,1 4 2 7 4 SSW 0,0
19.02.2019 21:00:00 9,0 -2,0 2 1 8 5 S 0,0
19.02.2019 20:00:00 11,8 -0,7 3 1 6 3 ESE 0,0
19.02.2019 19:00:00 13,3 -0,7 0 0 5 3 N -
19.02.2019 18:00:00 14,9 -0,4 0 0 7 4 NNW 0,0
19.02.2019 17:00:00 15,1 -0,2 2 1 7 4 WSW 0,0
19.02.2019 16:00:00 15,1 0,6 3 2 10 5 WNW 0,0
19.02.2019 15:00:00 14,9 1,1 4 2 11 6 SSE 0,0
19.02.2019 14:00:00 12,7 1,4 4 2 11 6 S 0,0
19.02.2019 13:00:00 11,5 2,8 4 2 11 6 SSE -
19.02.2019 12:00:00 9,4 3,0 6 4 18 10 S 0,0
19.02.2019 11:00:00 7,6 3,3 11 6 25 13 S 0,0
19.02.2019 10:00:00 5,8 3,0 10 5 27 15 SSE 0,0
19.02.2019 09:00:00 4,5 2,5 9 5 23 12 SSE 0,0
19.02.2019 08:00:00 4,1 2,0 4 2 13 7 SE 0,0
19.02.2019 07:00:00 4,7 2,4 7 4 20 11 SE -
19.02.2019 06:00:00 5,0 2,9 9 5 20 11 SSE 0,0
19.02.2019 05:00:00 5,1 3,0 8 5 26 14 SSE 0,0
19.02.2019 04:00:00 5,9 3,6 8 4 29 15 SE 0,0
19.02.2019 03:00:00 6,3 3,8 10 5 32 17 SSE 0,0
19.02.2019 02:00:00 6,7 3,5 12 6 34 18 SSE 0,0
19.02.2019 01:00:00 7,2 3,8 14 8 32 18 SSE -
19.02.2019 00:00:00 7,6 3,1 15 8 36 20 SE 0,0
18.02.2019 23:00:00 8,1 2,8 11 6 30 16 SE 0,0
18.02.2019 22:00:00 8,9 1,3 12 6 29 15 SSE 0,0
18.02.2019 21:00:00 9,6 -1,7 11 6 26 14 SE 0,0
18.02.2019 20:00:00 10,5 -2,5 3 2 12 6 SE 0,0
18.02.2019 19:00:00 12,3 -2,7 5 3 18 10 SE -
18.02.2019 18:00:00 13,9 -2,1 6 4 22 12 SE 0,0
18.02.2019 17:00:00 15,1 -1,9 6 3 21 11 SE 0,0
18.02.2019 16:00:00 15,6 -1,0 8 4 25 14 SSE 0,0
18.02.2019 15:00:00 14,8 -0,1 10 6 28 15 SSE 0,0
18.02.2019 14:00:00 13,2 0,3 12 7 32 17 SSE 0,0
18.02.2019 13:00:00 11,8 0,3 13 7 34 19 SSE -
18.02.2019 12:00:00 10,3 1,7 15 8 36 20 SSE 0,0
18.02.2019 11:00:00 8,5 2,3 13 7 34 18 SSE 0,0
18.02.2019 10:00:00 6,4 2,9 17 9 43 23 SE 0,0
18.02.2019 09:00:00 5,0 2,9 13 7 36 19 SE 0,0
18.02.2019 08:00:00 4,4 2,4 12 6 37 20 SE 0,0
18.02.2019 07:00:00 4,7 2,6 14 8 34 19 SE -
18.02.2019 06:00:00 5,0 2,7 13 7 35 19 SE 0,0
18.02.2019 05:00:00 4,9 2,6 13 7 35 19 SSE 0,0
18.02.2019 04:00:00 5,7 3,4 13 7 34 18 SE 0,0
18.02.2019 03:00:00 6,0 3,8 15 8 40 22 SSE 0,0
18.02.2019 02:00:00 6,3 4,1 16 8 39 21 SSE 0,0
18.02.2019 01:00:00 6,6 3,9 16 9 38 21 SE -
18.02.2019 00:00:00 7,2 3,1 14 8 32 17 SSE 0,0
17.02.2019 23:00:00 7,9 2,2 13 7 32 18 SSE 0,0
17.02.2019 22:00:00 8,5 0,3 11 6 27 15 SE 0,0
17.02.2019 21:00:00 9,3 -1,4 12 7 28 15 SSE 0,0
17.02.2019 20:00:00 10,3 -2,3 9 5 26 14 SE 0,0
17.02.2019 19:00:00 12,4 -3,0 10 5 22 12 SSE -
17.02.2019 18:00:00 15,3 -3,5 10 5 23 12 SSE 0,0
17.02.2019 17:00:00 16,5 -5,2 9 5 24 13 SSE 0,0
17.02.2019 16:00:00 17,9 -4,1 6 4 21 11 SE 0,0
17.02.2019 15:00:00 15,9 -5,1 10 5 24 13 S 0,0
17.02.2019 14:00:00 16,0 -4,0 11 6 27 15 SSE 0,0
17.02.2019 13:00:00 14,4 -4,3 11 6 27 15 SSE -
17.02.2019 12:00:00 12,7 -5,3 11 6 28 15 SSE 0,0
17.02.2019 11:00:00 10,1 -7,5 13 7 29 15 SSE 0,0
17.02.2019 10:00:00 7,6 -10,1 13 7 29 16 SSE 0,0
17.02.2019 09:00:00 5,2 -12,2 10 5 25 14 SE 0,0
17.02.2019 08:00:00 4,3 -12,5 10 5 23 12 SE 0,0
17.02.2019 07:00:00 4,5 -12,3 9 5 26 14 SE -
17.02.2019 06:00:00 4,4 -12,0 10 5 27 15 SE 0,0
17.02.2019 05:00:00 4,5 -11,9 10 6 29 16 SE 0,0
17.02.2019 04:00:00 4,0 -11,5 12 6 29 16 SE 0,0
17.02.2019 03:00:00 4,2 -11,4 10 5 30 16 SE 0,0
17.02.2019 02:00:00 4,7 -10,9 14 8 34 19 SSE 0,0
17.02.2019 01:00:00 5,4 -10,7 14 7 34 18 SE -
17.02.2019 00:00:00 5,7 -11,3 14 8 39 21 SE 0,0
16.02.2019 23:00:00 7,2 -7,6 15 8 34 18 SE 0,0
16.02.2019 22:00:00 8,4 -4,0 9 5 31 17 SE 0,0

tt = temperature
td = dewpoint
ff = wind speed
fx = gusts
dd = wind direction
rr = precipitation

Next stations